Terminal Aerodrome Forecast
Issued by NWS Knoxville/Tri Cities, TN

Home | Current Version | Previous Version | Text Only | Print | Product List | Glossary On
Versions: 1 2 3 4 5 6 7 8 9 10 11 12 13 14
000
FTUS44 KMRX 240521
TAFTRI
TAF
KTRI 240521Z 2406/2506 00000KT P6SM SKC
     FM240900 00000KT 6SM BR SKC
     FM241230 VRB03KT P6SM FEW045 SCT250=

USA.gov is the U.S. government's official web portal to all federal, state and local government web resources and services.